createdAt,value
2022-12-07T00:01:40.055Z,97497.94
2022-12-07T00:04:08.913Z,97495.94
2022-12-07T00:06:41.782Z,97497.19
2022-12-07T00:09:12.743Z,97489.78
2022-12-07T00:11:39.700Z,97494.28
2022-12-07T00:14:09.121Z,97486.72
2022-12-07T00:16:36.526Z,97494.00
2022-12-07T00:19:04.928Z,97492.66
2022-12-07T00:21:33.977Z,97485.81
2022-12-07T00:24:01.196Z,97475.66
2022-12-07T00:26:31.661Z,97482.59
2022-12-07T00:29:07.509Z,97471.47
2022-12-07T00:31:40.131Z,97478.06
2022-12-07T00:34:08.924Z,97477.78
2022-12-07T00:36:36.348Z,97458.03
2022-12-07T00:39:03.814Z,97439.56
2022-12-07T00:41:31.603Z,97431.22
2022-12-07T00:43:58.905Z,97435.22
2022-12-07T00:46:26.421Z,97438.13
2022-12-07T00:48:54.680Z,97435.47
2022-12-07T00:51:25.186Z,97441.59
2022-12-07T00:53:52.821Z,97452.72
2022-12-07T00:56:23.394Z,97447.94
2022-12-07T00:59:02.012Z,97447.16
2022-12-07T01:01:31.881Z,97438.34
2022-12-07T01:03:58.823Z,97434.50
2022-12-07T01:06:26.649Z,97443.63
2022-12-07T01:08:54.532Z,97441.03
2022-12-07T01:11:24.338Z,97437.94
2022-12-07T01:13:53.227Z,97437.34
2022-12-07T01:16:22.344Z,97435.66
2022-12-07T01:18:51.721Z,97448.78
2022-12-07T01:21:22.093Z,97436.78
2022-12-07T01:23:50.791Z,97428.75
2022-12-07T01:26:22.080Z,97432.56
2022-12-07T01:28:50.049Z,97433.81
2022-12-07T01:31:20.174Z,97430.25
2022-12-07T01:33:53.234Z,97432.75
2022-12-07T01:36:33.437Z,97434.66
2022-12-07T01:39:03.713Z,97433.09
2022-12-07T01:41:33.508Z,97429.47
2022-12-07T01:44:15.790Z,97427.59
2022-12-07T01:46:52.309Z,97444.00
2022-12-07T01:49:30.564Z,97444.78
2022-12-07T01:52:05.675Z,97436.63
2022-12-07T01:54:34.107Z,97432.31
2022-12-07T01:57:01.914Z,97434.19
2022-12-07T01:59:29.246Z,97430.03
2022-12-07T02:01:57.198Z,97431.78
2022-12-07T02:04:25.261Z,97433.00
2022-12-07T02:06:53.146Z,97424.41
2022-12-07T02:09:19.972Z,97431.19
2022-12-07T02:11:47.707Z,97421.31
2022-12-07T02:14:14.754Z,97425.91
2022-12-07T02:17:03.663Z,97427.44
2022-12-07T02:19:52.975Z,97426.03
2022-12-07T02:23:08.848Z,97424.03
2022-12-07T02:26:10.214Z,97411.03
2022-12-07T02:28:39.303Z,97412.56
2022-12-07T02:31:18.197Z,97400.53
2022-12-07T02:33:52.202Z,97407.59
2022-12-07T02:36:27.444Z,97411.63
2022-12-07T02:39:02.504Z,97408.34
2022-12-07T02:41:37.341Z,97414.69
2022-12-07T02:44:11.953Z,97406.22
2022-12-07T02:46:43.270Z,97413.44
2022-12-07T02:49:11.909Z,97406.53
2022-12-07T02:51:48.321Z,97406.72
2022-12-07T02:54:20.715Z,97402.41
2022-12-07T02:57:01.312Z,97407.31
2022-12-07T02:59:43.430Z,97392.47
2022-12-07T03:02:31.977Z,97392.47
2022-12-07T03:05:31.340Z,97390.00
2022-12-07T03:08:14.665Z,97390.59
2022-12-07T03:10:47.582Z,97396.72
2022-12-07T03:13:25.571Z,97395.00
2022-12-07T03:16:09.188Z,97389.44
2022-12-07T03:19:03.257Z,97395.75
2022-12-07T03:21:38.594Z,97390.78
2022-12-07T03:24:11.483Z,97395.41
2022-12-07T03:26:44.109Z,97394.16
2022-12-07T03:29:29.079Z,97392.44
2022-12-07T03:32:12.048Z,97387.94
2022-12-07T03:34:49.132Z,97384.19
2022-12-07T03:37:27.666Z,97392.63
2022-12-07T03:40:17.630Z,97399.53
2022-12-07T03:42:44.855Z,97387.84
2022-12-07T03:45:13.063Z,97382.94
2022-12-07T03:48:06.835Z,97382.19
2022-12-07T03:50:40.535Z,97379.91
2022-12-07T03:53:35.233Z,97379.00
2022-12-07T03:56:03.572Z,97380.25
2022-12-07T03:58:31.392Z,97389.84
2022-12-07T04:00:58.492Z,97379.97
2022-12-07T04:03:25.492Z,97377.38
2022-12-07T04:05:52.726Z,97378.91
2022-12-07T04:08:24.911Z,97376.63
2022-12-07T04:10:52.474Z,97368.94
2022-12-07T04:13:19.554Z,97358.19
2022-12-07T04:15:46.930Z,97359.44
2022-12-07T04:18:15.737Z,97365.00
2022-12-07T04:20:42.678Z,97362.56
2022-12-07T04:23:10.036Z,97351.47
2022-12-07T04:25:38.312Z,97353.66
2022-12-07T04:28:05.301Z,97352.72
2022-12-07T04:30:33.186Z,97354.72
2022-12-07T04:33:00.278Z,97362.41
2022-12-07T04:35:27.674Z,97361.06
2022-12-07T04:37:56.577Z,97363.16
2022-12-07T04:40:23.494Z,97357.59
2022-12-07T04:42:50.410Z,97359.13
2022-12-07T04:45:17.477Z,97359.13
2022-12-07T04:47:44.443Z,97362.41
2022-12-07T04:50:11.695Z,97364.88
2022-12-07T04:52:38.643Z,97353.47
2022-12-07T04:55:05.853Z,97348.41
2022-12-07T04:57:33.748Z,97342.84
2022-12-07T05:00:02.409Z,97351.06
2022-12-07T05:02:29.905Z,97344.75
2022-12-07T05:04:57.128Z,97345.88
2022-12-07T05:07:27.690Z,97351.44
2022-12-07T05:09:54.669Z,97347.59
2022-12-07T05:12:22.361Z,97353.91
2022-12-07T05:14:49.416Z,97348.72
2022-12-07T05:17:16.426Z,97347.84
2022-12-07T05:19:44.806Z,97350.34
2022-12-07T05:22:13.420Z,97346.03
2022-12-07T05:24:40.448Z,97344.47
2022-12-07T05:27:08.114Z,97327.69
2022-12-07T05:29:43.371Z,97335.75
2022-12-07T05:32:10.292Z,97338.53
2022-12-07T05:34:37.659Z,97341.00
2022-12-07T05:37:04.886Z,97334.97
2022-12-07T05:39:32.472Z,97344.66
2022-12-07T05:42:14.305Z,97342.00
2022-12-07T05:44:48.681Z,97338.94
2022-12-07T05:47:16.648Z,97337.19
2022-12-07T05:49:43.764Z,97340.28
2022-12-07T05:52:10.819Z,97334.72
2022-12-07T05:54:38.081Z,97329.75
2022-12-07T05:57:05.359Z,97334.34
2022-12-07T05:59:34.140Z,97321.56
2022-12-07T06:02:08.388Z,97328.81
2022-12-07T06:04:39.402Z,97326.91
2022-12-07T06:07:07.029Z,97328.94
2022-12-07T06:09:35.249Z,97328.47
2022-12-07T06:12:43.241Z,97321.38
2022-12-07T06:15:13.945Z,97319.63
2022-12-07T06:17:40.887Z,97319.63
2022-12-07T06:20:08.308Z,97332.06
2022-12-07T06:22:35.323Z,97325.44
2022-12-07T06:25:08.108Z,97329.50
2022-12-07T06:27:36.544Z,97323.31
2022-12-07T06:30:07.673Z,97329.75
2022-12-07T06:32:35.247Z,97330.34
2022-12-07T06:35:05.377Z,97327.88
2022-12-07T06:37:33.305Z,97323.84
2022-12-07T06:40:00.824Z,97334.94
2022-12-07T06:42:28.219Z,97323.84
2022-12-07T06:44:55.174Z,97327.88
2022-12-07T06:47:46.146Z,97325.09
2022-12-07T06:50:14.700Z,97333.25
2022-12-07T06:52:41.582Z,97332.47
2022-12-07T06:55:08.817Z,97328.75
2022-12-07T06:57:35.786Z,97333.06
2022-12-07T07:00:05.207Z,97343.50
2022-12-07T07:02:32.433Z,97337.50
2022-12-07T07:04:59.385Z,97349.00
2022-12-07T07:08:20.280Z,97352.63
2022-12-07T07:10:34.631Z,97350.16
2022-12-07T07:13:24.774Z,97345.19
2022-12-07T07:15:54.995Z,97346.72
2022-12-07T07:18:22.252Z,97349.63
2022-12-07T07:20:49.231Z,97343.56
2022-12-07T07:23:16.848Z,97345.41
2022-12-07T07:25:45.482Z,97337.06
2022-12-07T07:28:12.788Z,97343.19
2022-12-07T07:30:39.740Z,97344.44
2022-12-07T07:33:14.754Z,97347.22
2022-12-07T07:35:41.887Z,97350.00
2022-12-07T07:38:11.293Z,97346.75
2022-12-07T07:40:40.311Z,97342.72
2022-12-07T07:43:09.183Z,97343.19
2022-12-07T07:45:36.125Z,97350.00
2022-12-07T07:48:04.454Z,97345.22
2022-12-07T07:50:32.034Z,97348.25
2022-12-07T07:52:59.512Z,97352.88
2022-12-07T07:55:26.895Z,97357.19
2022-12-07T07:58:02.955Z,97362.84
2022-12-07T08:00:31.073Z,97350.97
2022-12-07T08:02:58.120Z,97338.69
2022-12-07T08:05:24.932Z,97363.91
2022-12-07T08:07:52.093Z,97357.09
2022-12-07T08:10:19.109Z,97352.81
2022-12-07T08:13:04.737Z,97354.63
2022-12-07T08:15:32.277Z,97367.06
2022-12-07T08:17:59.967Z,97359.00
2022-12-07T08:20:27.192Z,97362.09
2022-12-07T08:22:54.086Z,97356.81
2022-12-07T08:25:20.973Z,97359.59
2022-12-07T08:27:47.837Z,97362.09
2022-12-07T08:30:14.957Z,97356.81
2022-12-07T08:32:42.029Z,97355.28
2022-12-07T08:35:09.316Z,97365.44
2022-12-07T08:37:36.527Z,97365.25
2022-12-07T08:40:05.044Z,97358.44
2022-12-07T08:42:38.847Z,97366.31
2022-12-07T08:45:12.210Z,97357.97
2022-12-07T08:47:45.896Z,97355.19
2022-12-07T08:50:13.555Z,97363.25
2022-12-07T08:52:42.429Z,97364.22
2022-12-07T08:55:12.048Z,97365.44
2022-12-07T08:57:40.316Z,97376.84
2022-12-07T09:00:08.545Z,97377.03
2022-12-07T09:02:35.782Z,97376.25
2022-12-07T09:05:02.906Z,97379.34
2022-12-07T09:07:33.203Z,97373.59
2022-12-07T09:10:00.409Z,97360.75
2022-12-07T09:12:28.205Z,97373.50
2022-12-07T09:14:55.060Z,97383.38
2022-12-07T09:17:22.049Z,97389.72
2022-12-07T09:19:48.867Z,97390.47
2022-12-07T09:22:15.798Z,97391.22
2022-12-07T09:24:42.892Z,97389.97
2022-12-07T09:27:09.699Z,97382.97
2022-12-07T09:29:37.296Z,97388.66
2022-12-07T09:32:08.412Z,97377.06
2022-12-07T09:34:38.332Z,97387.97
2022-12-07T09:37:05.245Z,97391.59
2022-12-07T09:39:32.171Z,97382.03
2022-12-07T09:42:00.900Z,97376.19
2022-12-07T09:44:29.482Z,97385.56
2022-12-07T09:46:57.792Z,97373.19
2022-12-07T09:49:29.255Z,97370.69
2022-12-07T09:52:18.298Z,97368.78
2022-12-07T09:54:48.973Z,97372.59
2022-12-07T09:57:16.616Z,97354.97
2022-12-07T09:59:43.585Z,97353.78
2022-12-07T10:02:39.482Z,97347.75
2022-12-07T10:05:19.070Z,97354.00
2022-12-07T10:07:49.132Z,97355.72
2022-12-07T10:10:20.528Z,97356.47
2022-12-07T10:13:01.358Z,97356.47
2022-12-07T10:15:46.335Z,97356.88
2022-12-07T10:18:33.631Z,97352.28
2022-12-07T10:21:17.282Z,97356.88
2022-12-07T10:24:20.486Z,97351.31
2022-12-07T10:26:47.736Z,97351.88
2022-12-07T10:29:22.398Z,97353.44
2022-12-07T10:31:57.062Z,97347.66
2022-12-07T10:34:36.604Z,97342.66
2022-12-07T10:37:14.817Z,97337.66
2022-12-07T10:39:52.555Z,97335.94
2022-12-07T10:42:26.785Z,97334.97
2022-12-07T10:45:17.088Z,97333.97
2022-12-07T10:48:18.266Z,97325.38
2022-12-07T10:51:00.004Z,97330.16
2022-12-07T10:53:39.367Z,97328.16
2022-12-07T10:56:24.280Z,97325.63
2022-12-07T10:59:05.531Z,97331.19
2022-12-07T11:01:38.101Z,97323.84
2022-12-07T11:04:29.988Z,97322.50
2022-12-07T11:07:06.239Z,97320.97
2022-12-07T11:10:08.371Z,97308.09
2022-12-07T11:12:58.484Z,97315.56
2022-12-07T11:16:02.452Z,97310.78
2022-12-07T11:18:39.857Z,97313.81
2022-12-07T11:21:15.768Z,97319.69
2022-12-07T11:24:17.062Z,97301.44
2022-12-07T11:27:15.732Z,97299.91
2022-12-07T11:29:54.782Z,97305.19
2022-12-07T11:32:40.515Z,97303.66
2022-12-07T11:35:36.266Z,97298.38
2022-12-07T11:38:12.604Z,97290.31
2022-12-07T11:40:41.824Z,97294.63
2022-12-07T11:43:18.323Z,97297.69
2022-12-07T11:45:57.230Z,97285.78
2022-12-07T11:48:36.343Z,97280.72
2022-12-07T11:51:05.646Z,97287.31
2022-12-07T11:53:58.289Z,97288.09
2022-12-07T11:56:28.388Z,97279.47
2022-12-07T11:59:05.473Z,97272.38
2022-12-07T12:01:32.799Z,97270.41
2022-12-07T12:04:13.641Z,97271.53
2022-12-07T12:06:43.613Z,97269.03
2022-12-07T12:15:45.410Z,97258.44
2022-12-07T12:18:15.308Z,97259.22
2022-12-07T12:20:57.748Z,97254.53
2022-12-07T12:23:42.610Z,97252.97
2022-12-07T12:26:19.269Z,97245.56
2022-12-07T12:28:58.057Z,97255.16
2022-12-07T12:31:24.795Z,97255.13
2022-12-07T12:33:54.236Z,97243.97
2022-12-07T12:36:27.316Z,97240.50
2022-12-07T12:38:59.967Z,97246.56
2022-12-07T12:41:39.495Z,97244.72
2022-12-07T12:44:21.239Z,97244.53
2022-12-07T12:46:55.996Z,97244.06
2022-12-07T12:49:22.824Z,97240.72
2022-12-07T12:51:59.140Z,97243.47
2022-12-07T12:54:28.683Z,97241.69
2022-12-07T12:57:12.420Z,97235.38
2022-12-07T12:59:48.410Z,97232.34
2022-12-07T13:02:27.157Z,97228.03
2022-12-07T13:04:59.959Z,97224.69
2022-12-07T13:07:45.888Z,97234.28
2022-12-07T13:10:30.424Z,97237.06
2022-12-07T13:13:20.946Z,97223.56
2022-12-07T13:15:51.929Z,97234.75
2022-12-07T13:18:34.003Z,97234.94
2022-12-07T13:21:07.782Z,97232.09
2022-12-07T13:23:38.342Z,97236.59
2022-12-07T13:26:18.314Z,97228.44
2022-12-07T13:29:05.874Z,97225.84
2022-12-07T13:31:40.572Z,97224.00
2022-12-07T13:34:42.883Z,97225.19
2022-12-07T13:37:38.510Z,97227.63
2022-12-07T13:40:26.329Z,97224.72
2022-12-07T13:43:06.191Z,97227.97
2022-12-07T13:45:50.321Z,97228.69
2022-12-07T13:48:18.536Z,97228.41
2022-12-07T13:50:54.903Z,97217.50
2022-12-07T13:53:22.074Z,97223.06
2022-12-07T13:55:54.282Z,97215.94
2022-12-07T13:58:23.483Z,97211.59
2022-12-07T14:00:50.994Z,97218.44
2022-12-07T14:03:17.942Z,97225.25
2022-12-07T14:05:46.036Z,97222.00
2022-12-07T14:08:14.063Z,97221.53
2022-12-07T14:10:57.764Z,97224.66
2022-12-07T14:13:40.422Z,97221.41
2022-12-07T14:16:24.596Z,97215.53
2022-12-07T14:18:51.855Z,97215.28
2022-12-07T14:21:25.146Z,97207.88
2022-12-07T14:24:10.051Z,97213.44
2022-12-07T14:26:40.239Z,97216.66
2022-12-07T14:29:25.781Z,97218.38
2022-12-07T14:31:53.478Z,97215.06
2022-12-07T14:34:22.812Z,97224.09
2022-12-07T14:36:50.260Z,97221.25
2022-12-07T14:39:17.645Z,97222.44
2022-12-07T14:41:53.716Z,97223.44
2022-12-07T14:44:26.791Z,97220.81
2022-12-07T14:49:41.996Z,97216.00
2022-12-07T14:55:34.621Z,97211.91
2022-12-07T14:58:01.890Z,97200.16
2022-12-07T15:00:29.539Z,97206.41
2022-12-07T15:02:57.579Z,97216.53
2022-12-07T15:05:25.761Z,97221.56
2022-12-07T15:07:53.369Z,97208.88
2022-12-07T15:10:24.607Z,97211.41
2022-12-07T15:12:52.731Z,97208.06
2022-12-07T15:15:21.094Z,97209.31
2022-12-07T15:17:48.150Z,97207.22
2022-12-07T15:20:17.962Z,97205.63
2022-12-07T15:22:46.859Z,97214.19
2022-12-07T15:25:15.341Z,97199.72
2022-12-07T15:27:43.237Z,97204.03
2022-12-07T15:30:10.509Z,97205.84
2022-12-07T15:32:54.094Z,97205.13
2022-12-07T15:35:27.659Z,97206.69
2022-12-07T15:38:34.469Z,97211.47
2022-12-07T15:41:25.241Z,97205.13
2022-12-07T15:44:10.854Z,97205.91
2022-12-07T15:46:40.613Z,97215.28
2022-12-07T15:49:12.316Z,97209.72
2022-12-07T15:51:39.187Z,97207.22
2022-12-07T15:54:07.081Z,97205.22
2022-12-07T15:56:34.090Z,97208.00
2022-12-07T15:59:01.221Z,97206.47
2022-12-07T16:01:28.089Z,97212.50
2022-12-07T16:03:55.363Z,97209.25
2022-12-07T16:06:23.388Z,97207.22
2022-12-07T16:08:53.196Z,97210.31
2022-12-07T16:11:20.170Z,97215.09
2022-12-07T16:13:47.031Z,97204.22
2022-12-07T16:16:16.455Z,97211.81
2022-12-07T16:18:44.679Z,97203.19
2022-12-07T16:21:12.524Z,97207.44
2022-12-07T16:23:39.838Z,97208.41
2022-12-07T16:26:13.278Z,97213.41
2022-12-07T16:28:41.938Z,97198.19
2022-12-07T16:31:15.106Z,97200.97
2022-12-07T16:33:43.982Z,97202.72
2022-12-07T16:36:14.479Z,97211.53
2022-12-07T16:38:41.414Z,97206.75
2022-12-07T16:41:09.256Z,97205.72
2022-12-07T16:43:38.429Z,97207.50
2022-12-07T16:46:06.669Z,97213.63
2022-12-07T16:48:39.741Z,97218.97
2022-12-07T16:51:12.031Z,97210.16
2022-12-07T16:53:40.960Z,97210.16
2022-12-07T16:56:12.769Z,97212.16
2022-12-07T16:58:40.072Z,97213.41
2022-12-07T17:01:18.399Z,97215.72
2022-12-07T17:03:46.580Z,97208.13
2022-12-07T17:06:19.725Z,97209.94
2022-12-07T17:08:47.667Z,97211.94
2022-12-07T17:11:28.014Z,97207.91
2022-12-07T17:14:16.383Z,97207.91
2022-12-07T17:16:43.458Z,97204.59
2022-12-07T17:19:14.408Z,97211.91
2022-12-07T17:21:42.227Z,97203.00
2022-12-07T17:24:12.558Z,97200.97
2022-12-07T17:26:40.394Z,97207.50
2022-12-07T17:29:09.723Z,97205.97
2022-12-07T17:31:37.492Z,97213.00
2022-12-07T17:34:05.357Z,97196.72
2022-12-07T17:36:33.106Z,97203.75
2022-12-07T17:39:00.085Z,97197.63
2022-12-07T17:41:47.707Z,97195.53
2022-12-07T17:44:16.970Z,97197.78
2022-12-07T17:46:45.049Z,97201.53
2022-12-07T17:49:12.132Z,97196.91
2022-12-07T17:51:57.620Z,97200.22
2022-12-07T17:54:24.612Z,97204.03
2022-12-07T17:56:51.540Z,97209.59
2022-12-07T17:59:18.519Z,97206.31
2022-12-07T18:01:46.034Z,97203.03
2022-12-07T18:04:13.222Z,97198.25
2022-12-07T18:06:40.567Z,97189.72
2022-12-07T18:09:07.814Z,97195.53
2022-12-07T18:11:35.037Z,97189.22
2022-12-07T18:14:02.959Z,97196.31
2022-12-07T18:16:33.194Z,97187.00
2022-12-07T18:19:03.315Z,97183.44
2022-12-07T18:21:31.855Z,97179.41
2022-12-07T18:24:02.493Z,97187.28
2022-12-07T18:26:34.142Z,97179.41
2022-12-07T18:29:01.832Z,97180.94
2022-12-07T18:31:29.690Z,97182.41
2022-12-07T18:34:00.709Z,97184.41
2022-12-07T18:36:27.677Z,97184.41
2022-12-07T18:38:54.796Z,97173.44
2022-12-07T18:41:21.751Z,97181.63
2022-12-07T18:43:48.953Z,97183.94
2022-12-07T18:46:21.703Z,97169.28
2022-12-07T18:48:51.179Z,97171.56
2022-12-07T18:51:20.205Z,97174.06
2022-12-07T18:53:47.516Z,97173.28
2022-12-07T18:56:20.244Z,97170.50
2022-12-07T18:59:13.928Z,97167.72
2022-12-07T19:01:42.740Z,97168.94
2022-12-07T19:04:11.149Z,97166.84
2022-12-07T19:06:38.766Z,97168.56
2022-12-07T19:09:06.771Z,97156.31
2022-12-07T19:11:52.399Z,97173.00
2022-12-07T19:14:28.272Z,97168.41
2022-12-07T19:16:58.040Z,97170.91
2022-12-07T19:19:33.058Z,97168.06
2022-12-07T19:22:01.274Z,97168.25
2022-12-07T19:24:29.377Z,97163.47
2022-12-07T19:26:56.763Z,97159.44
2022-12-07T19:29:24.724Z,97161.44
2022-12-07T19:31:53.652Z,97160.41
2022-12-07T19:34:20.578Z,97173.06
2022-12-07T19:36:47.758Z,97156.00
2022-12-07T19:39:16.102Z,97166.66
2022-12-07T19:41:44.777Z,97162.91
2022-12-07T19:44:22.931Z,97168.47
2022-12-07T19:46:51.273Z,97158.41
2022-12-07T19:49:20.095Z,97153.88
2022-12-07T19:51:50.025Z,97156.19
2022-12-07T19:54:19.469Z,97157.41
2022-12-07T19:56:47.552Z,97155.63
2022-12-07T19:59:15.894Z,97149.97
2022-12-07T20:01:43.640Z,97153.53
2022-12-07T20:04:22.150Z,97154.28
2022-12-07T20:06:51.967Z,97146.13
2022-12-07T20:09:19.811Z,97152.00
2022-12-07T20:12:05.724Z,97149.00
2022-12-07T20:14:33.403Z,97145.44
2022-12-07T20:17:00.705Z,97138.66
2022-12-07T20:19:28.203Z,97140.75
2022-12-07T20:21:55.342Z,97140.44
2022-12-07T20:24:26.555Z,97134.16
2022-12-07T20:26:57.781Z,97136.22
2022-12-07T20:29:27.293Z,97135.44
2022-12-07T20:31:55.186Z,97134.72
2022-12-07T20:34:22.866Z,97128.66
2022-12-07T20:36:49.860Z,97132.97
2022-12-07T20:39:17.686Z,97129.19
2022-12-07T20:42:03.208Z,97134.28
2022-12-07T20:44:30.195Z,97121.16
2022-12-07T20:46:57.011Z,97127.75
2022-12-07T20:49:24.156Z,97128.50
2022-12-07T20:51:51.603Z,97125.19
2022-12-07T20:54:18.642Z,97128.72
2022-12-07T20:56:45.590Z,97134.75
2022-12-07T20:59:15.132Z,97136.97
2022-12-07T21:01:43.325Z,97127.81
2022-12-07T21:04:12.840Z,97127.81
2022-12-07T21:06:39.888Z,97116.88
2022-12-07T21:09:08.297Z,97125.16
2022-12-07T21:11:35.213Z,97120.28
2022-12-07T21:14:02.832Z,97122.53
2022-12-07T21:16:31.462Z,97123.47
2022-12-07T21:19:02.712Z,97118.41
2022-12-07T21:21:31.782Z,97118.31
2022-12-07T21:24:02.515Z,97117.56
2022-12-07T21:26:31.320Z,97125.41
2022-12-07T21:28:58.316Z,97116.78
2022-12-07T21:31:30.340Z,97126.19
2022-12-07T21:33:58.173Z,97126.66
2022-12-07T21:36:26.737Z,97110.97
2022-12-07T21:38:53.989Z,97117.00
2022-12-07T21:41:30.829Z,97112.22
2022-12-07T21:43:58.931Z,97107.63
2022-12-07T21:46:33.304Z,97114.69
2022-12-07T21:49:04.775Z,97109.13
2022-12-07T21:51:32.657Z,97098.59
2022-12-07T21:54:00.822Z,97106.94
2022-12-07T21:56:30.867Z,97099.84
2022-12-07T21:59:04.097Z,97105.88
2022-12-07T22:01:36.145Z,97099.97
2022-12-07T22:04:10.438Z,97092.88
2022-12-07T22:06:37.813Z,97083.97
2022-12-07T22:09:07.165Z,97091.75
2022-12-07T22:11:35.107Z,97088.69
2022-12-07T22:14:21.681Z,97092.72
2022-12-07T22:16:49.768Z,97092.44
2022-12-07T22:19:17.909Z,97084.09
2022-12-07T22:21:45.590Z,97088.69
2022-12-07T22:24:14.180Z,97083.91
2022-12-07T22:26:42.991Z,97096.53
2022-12-07T22:29:11.322Z,97097.31
2022-12-07T22:31:41.260Z,97089.75
2022-12-07T22:34:15.691Z,97077.31
2022-12-07T22:36:42.914Z,97077.00
2022-12-07T22:39:11.105Z,97083.13
2022-12-07T22:41:38.289Z,97084.66
2022-12-07T22:44:10.432Z,97077.88
2022-12-07T22:46:38.217Z,97073.56
2022-12-07T22:49:05.623Z,97060.91
2022-12-07T22:51:36.080Z,97063.97
2022-12-07T22:54:08.040Z,97054.13
2022-12-07T22:56:37.097Z,97059.00
2022-12-07T22:59:06.478Z,97057.19
2022-12-07T23:01:34.007Z,97054.88
2022-12-07T23:04:01.292Z,97050.78
2022-12-07T23:06:31.527Z,97050.78
2022-12-07T23:09:05.022Z,97044.47
2022-12-07T23:11:54.152Z,97046.19
2022-12-07T23:14:33.027Z,97036.63
2022-12-07T23:17:00.451Z,97039.41
2022-12-07T23:19:28.215Z,97036.63
2022-12-07T23:21:55.240Z,97038.34
2022-12-07T23:24:22.211Z,97031.06
2022-12-07T23:26:49.936Z,97039.66
2022-12-07T23:29:18.381Z,97038.44
2022-12-07T23:31:47.460Z,97038.69
2022-12-07T23:34:15.025Z,97033.13
2022-12-07T23:36:42.032Z,97035.66
2022-12-07T23:39:09.958Z,97033.56
2022-12-07T23:41:36.809Z,97033.84
2022-12-07T23:44:03.925Z,97042.19
2022-12-07T23:46:32.934Z,97038.13
2022-12-07T23:49:01.693Z,97031.63
2022-12-07T23:51:30.150Z,97031.13
2022-12-07T23:53:59.792Z,97026.91
2022-12-07T23:56:29.008Z,97020.09
2022-12-07T23:58:56.954Z,97021.63
